Time;durP1;ratioP1;P1;durP2;ratioP2;P2;SDS_P1;SDS_P2;PMS_P1;PMS_P2;Temp;Humidity;BMP_temperature;BMP_pressure;BME280_temperature;BME280_humidity;BME280_pressure;Samples;Min_cycle;Max_cycle;Signal;HPM_P1;HPM_P2
2022/02/21 00:00:23;;;;;;;;;5.00;4.00;;;;;13.15;59.86;100352.41;2061574;28;48078;-57
2022/02/21 00:01:24;;;;;;;;;5.33;4.33;;;;;13.13;59.81;100351.63;2053523;28;47289;-58
2022/02/21 00:02:24;;;;;;;;;5.00;5.00;;;;;13.14;60.55;100349.81;2070653;28;47700;-56
2022/02/21 00:03:25;;;;;;;;;7.00;6.00;;;;;13.12;59.94;100352.53;2070946;28;47448;-58
2022/02/21 00:04:25;;;;;;;;;5.33;3.67;;;;;13.10;59.45;100365.06;2071132;28;47973;-58
2022/02/21 00:05:27;;;;;;;;;6.00;5.33;;;;;13.10;59.56;100364.19;2070934;28;47616;-58
2022/02/21 00:06:27;;;;;;;;;7.00;5.25;;;;;13.08;59.38;100363.34;2070241;28;47992;-58
2022/02/21 00:07:27;;;;;;;;;3.33;3.00;;;;;13.08;59.24;100371.34;2070421;28;47633;-56
2022/02/21 00:08:28;;;;;;;;;5.67;3.00;;;;;13.06;58.79;100360.75;2071047;28;47022;-58
2022/02/21 00:09:28;;;;;;;;;7.00;5.67;;;;;13.05;58.39;100352.81;2070551;28;47787;-58
2022/02/21 00:10:29;;;;;;;;;6.33;4.00;;;;;13.02;58.18;100353.81;2070114;28;48194;-56
2022/02/21 00:11:30;;;;;;;;;5.33;5.33;;;;;13.01;57.92;100356.53;2056937;28;47360;-58
2022/02/21 00:12:30;;;;;;;;;5.67;4.00;;;;;13.00;57.46;100369.00;2053758;28;47238;-57
2022/02/21 00:13:31;;;;;;;;;10.00;6.00;;;;;12.98;57.77;100364.66;2070861;28;47875;-57
2022/02/21 00:14:31;;;;;;;;;5.00;5.00;;;;;12.98;57.12;100364.66;2070950;28;47767;-57
2022/02/21 00:15:32;;;;;;;;;5.33;4.33;;;;;12.95;57.31;100379.78;2070992;28;47484;-57
2022/02/21 00:16:32;;;;;;;;;4.00;3.67;;;;;12.94;56.94;100383.38;2070877;28;47611;-56
2022/02/21 00:17:33;;;;;;;;;6.00;3.00;;;;;12.93;56.94;100376.31;2067815;28;47716;-58
2022/02/21 00:18:33;;;;;;;;;5.33;4.00;;;;;12.93;56.78;100386.09;2061769;28;47471;-57
2022/02/21 00:19:34;;;;;;;;;5.67;3.67;;;;;12.91;56.66;100380.84;2070779;28;47451;-55
2022/02/21 00:20:34;;;;;;;;;8.00;5.67;;;;;12.90;56.33;100387.09;2069725;28;46652;-58
2022/02/21 00:21:35;;;;;;;;;7.00;4.00;;;;;12.89;56.39;100404.00;2069782;28;46748;-58
2022/02/21 00:22:35;;;;;;;;;6.00;4.33;;;;;12.87;56.30;100384.53;2069778;28;47902;-58
2022/02/21 00:23:36;;;;;;;;;6.00;3.00;;;;;12.88;56.11;100396.06;2061761;28;47256;-58
2022/02/21 00:24:37;;;;;;;;;6.33;5.00;;;;;12.86;55.95;100411.25;2070456;28;47594;-57
2022/02/21 00:25:37;;;;;;;;;4.33;2.67;;;;;12.85;55.65;100394.41;2070684;28;47493;-57
2022/02/21 00:26:38;;;;;;;;;3.33;3.00;;;;;12.85;55.96;100405.03;2071325;28;47437;-58
2022/02/21 00:27:38;;;;;;;;;7.50;6.00;;;;;12.85;55.60;100412.16;2073110;28;47486;-58
2022/02/21 00:28:39;;;;;;;;;4.67;4.67;;;;;12.84;55.53;100413.09;2071181;28;47347;-56
2022/02/21 00:29:39;;;;;;;;;10.00;6.33;;;;;12.83;55.48;100411.31;2071079;28;47464;-58
2022/02/21 00:30:39;;;;;;;;;4.67;4.00;;;;;12.83;55.55;100414.88;2070885;28;47729;-58
2022/02/21 00:31:40;;;;;;;;;7.33;5.00;;;;;12.85;55.51;100433.47;2070922;28;48081;-58
2022/02/21 00:32:40;;;;;;;;;4.00;4.00;;;;;12.84;55.38;100437.06;2070894;28;46580;-58
2022/02/21 00:33:41;;;;;;;;;3.00;3.00;;;;;12.83;54.96;100440.63;2071003;28;47441;-57
2022/02/21 00:34:42;;;;;;;;;4.33;3.33;;;;;12.82;55.20;100455.72;2070720;28;47673;-57
2022/02/21 00:35:42;;;;;;;;;6.33;5.33;;;;;12.83;55.04;100459.25;2069571;28;47329;-58
2022/02/21 00:36:43;;;;;;;;;2.67;2.67;;;;;12.81;54.89;100448.66;2069674;28;47532;-57
2022/02/21 00:37:43;;;;;;;;;3.33;3.00;;;;;12.80;55.00;100449.59;2070846;28;47288;-57
2022/02/21 00:38:44;;;;;;;;;2.33;2.33;;;;;12.80;54.91;100454.03;2070800;28;47439;-57
2022/02/21 00:39:44;;;;;;;;;4.00;4.00;;;;;12.77;54.62;100449.72;2070913;28;47498;-58
2022/02/21 00:40:45;;;;;;;;;3.00;3.00;;;;;12.77;54.85;100454.16;2069933;28;47622;-58
2022/02/21 00:41:45;;;;;;;;;4.00;2.00;;;;;12.76;54.83;100455.09;2070187;28;47724;-57
2022/02/21 00:42:46;;;;;;;;;3.00;3.00;;;;;12.75;54.46;100456.00;2060884;28;47602;-58
2022/02/21 00:43:46;;;;;;;;;2.67;2.67;;;;;12.73;54.59;100457.88;2061484;28;47961;-58
2022/02/21 00:44:48;;;;;;;;;2.67;1.67;;;;;12.71;54.03;100454.38;2059303;28;47138;-55
2022/02/21 00:45:49;;;;;;;;;3.00;2.75;;;;;12.67;53.97;100457.13;2059111;28;47699;-58
2022/02/21 00:46:49;;;;;;;;;4.33;4.33;;;;;12.65;53.58;100456.31;2070707;28;47520;-55
2022/02/21 00:47:50;;;;;;;;;4.00;2.67;;;;;12.62;53.28;100445.78;2070821;28;47430;-58
2022/02/21 00:48:50;;;;;;;;;2.00;1.00;;;;;12.60;53.07;100452.09;2070914;28;47745;-57
2022/02/21 00:49:52;;;;;;;;;3.00;3.00;;;;;12.58;52.87;100453.94;2071181;28;47657;-55
2022/02/21 00:50:52;;;;;;;;;1.50;1.25;;;;;12.55;53.04;100470.00;2071049;28;47540;-57
2022/02/21 00:51:53;;;;;;;;;3.00;3.00;;;;;12.53;52.91;100471.84;2072307;28;48074;-57
2022/02/21 00:52:53;;;;;;;;;3.00;1.67;;;;;12.51;53.20;100460.38;2072395;28;47595;-57
2022/02/21 00:53:54;;;;;;;;;2.33;2.00;;;;;12.49;52.62;100486.19;2071856;28;47446;-56
2022/02/21 00:54:54;;;;;;;;;1.00;1.00;;;;;12.48;52.72;100508.41;2071896;28;48271;-57
2022/02/21 00:55:54;;;;;;;;;1.00;1.00;;;;;12.45;52.38;100482.75;2072056;28;47866;-54
2022/02/21 00:56:55;;;;;;;;;3.00;2.00;;;;;12.42;52.23;100493.47;2072189;28;47852;-56
2022/02/21 00:57:55;;;;;;;;;1.00;1.00;;;;;12.38;52.20;100497.16;2072634;28;47639;-56
2022/02/21 00:58:56;;;;;;;;;2.33;1.00;;;;;12.33;52.22;100491.16;2072104;28;47854;-58
2022/02/21 00:59:56;;;;;;;;;1.00;1.00;;;;;12.28;52.94;100499.25;2072417;28;47639;-57
2022/02/21 01:00:57;;;;;;;;;1.00;1.00;;;;;12.25;53.06;100498.50;2071520;28;47552;-55
2022/02/21 01:01:57;;;;;;;;;4.00;1.00;;;;;12.23;53.20;100521.63;2071293;28;48070;-57
2022/02/21 01:02:58;;;;;;;;;3.67;1.33;;;;;12.20;53.20;100525.25;2072353;28;47509;-56
2022/02/21 01:03:59;;;;;;;;;1.00;1.00;;;;;12.18;53.79;100523.53;2072319;28;45984;-56
2022/02/21 01:04:59;;;;;;;;;1.33;1.33;;;;;12.15;54.21;100537.81;2072106;28;47525;-57
2022/02/21 01:06:00;;;;;;;;;1.00;1.00;;;;;12.13;54.46;100552.09;2072077;28;47490;-57
2022/02/21 01:07:00;;;;;;;;;5.00;2.33;;;;;12.10;54.80;100537.09;2072115;28;47482;-55
2022/02/21 01:08:01;;;;;;;;;0.00;0.00;;;;;12.07;55.12;100558.47;2071549;28;47609;-57
2022/02/21 01:09:03;;;;;;;;;1.00;0.33;;;;;12.00;55.62;100562.22;2071400;28;47160;-52
2022/02/21 01:10:04;;;;;;;;;1.00;1.00;;;;;11.94;55.81;100579.25;2072045;28;47924;-56
2022/02/21 01:11:05;;;;;;;;;1.50;0.00;;;;;11.90;55.64;100561.63;2070918;28;47285;-58
2022/02/21 01:12:06;;;;;;;;;1.00;1.00;;;;;11.85;55.96;100584.81;2064666;28;47479;-59
2022/02/21 01:13:07;;;;;;;;;1.33;1.00;;;;;11.78;55.76;100568.13;2072276;28;47462;-57
2022/02/21 01:14:07;;;;;;;;;1.00;0.00;;;;;11.73;56.06;100571.84;2072013;28;48032;-56
2022/02/21 01:15:10;;;;;;;;;2.00;2.00;;;;;11.68;56.00;100528.56;2062835;28;45778;-56
2022/02/21 01:16:10;;;;;;;;;1.00;1.00;;;;;11.63;56.25;100549.97;2062682;28;47692;-58
2022/02/21 01:17:11;;;;;;;;;1.67;1.67;;;;;11.57;56.02;100534.22;2072094;28;47756;-57
2022/02/21 01:18:12;;;;;;;;;1.00;1.00;;;;;11.53;56.06;100534.31;2071657;28;47742;-54
2022/02/21 01:19:13;;;;;;;;;2.33;1.00;;;;;11.48;55.52;100543.31;2071956;28;47314;-56
2022/02/21 01:20:13;;;;;;;;;0.00;0.00;;;;;11.45;55.63;100551.38;2064150;28;47686;-56
2022/02/21 01:21:14;;;;;;;;;1.67;0.67;;;;;11.42;55.63;100545.25;2068290;28;47118;-56
2022/02/21 01:22:14;;;;;;;;;1.00;1.00;;;;;11.39;55.61;100543.56;2072052;28;47386;-58
2022/02/21 01:23:15;;;;;;;;;2.00;0.67;;;;;11.37;55.62;100544.50;2072313;28;47480;-56
2022/02/21 01:24:15;;;;;;;;;1.00;0.67;;;;;11.36;55.16;100550.75;2071670;28;47422;-57
2022/02/21 01:25:15;;;;;;;;;2.67;1.67;;;;;11.34;55.22;100547.25;2072132;28;47530;-55
2022/02/21 01:26:16;;;;;;;;;1.00;1.00;;;;;11.34;55.57;100547.25;2072316;28;45465;-57
2022/02/21 01:27:16;;;;;;;;;1.00;1.00;;;;;11.32;55.39;100547.31;2076118;28;47435;-58
2022/02/21 01:28:17;;;;;;;;;1.33;0.00;;;;;11.32;55.52;100543.78;2072138;28;48030;-58
2022/02/21 01:29:17;;;;;;;;;1.33;0.67;;;;;11.31;55.57;100534.94;2072010;28;47478;-57
2022/02/21 01:30:17;;;;;;;;;1.33;1.00;;;;;11.31;55.44;100547.34;2072020;28;48049;-57
2022/02/21 01:31:18;;;;;;;;;2.00;1.00;;;;;11.30;54.93;100548.25;2072042;28;47630;-58
2022/02/21 01:32:19;;;;;;;;;2.00;1.00;;;;;11.30;55.09;100562.41;2071677;28;47528;-54
2022/02/21 01:33:20;;;;;;;;;2.00;2.00;;;;;11.30;55.10;100553.56;2072336;28;46599;-59
2022/02/21 01:34:21;;;;;;;;;1.67;1.67;;;;;11.29;54.98;100555.34;2071751;28;47851;-57
2022/02/21 01:35:22;;;;;;;;;0.00;0.00;;;;;11.28;54.88;100558.03;2071990;28;47894;-58
2022/02/21 01:36:22;;;;;;;;;0.67;0.67;;;;;11.28;55.24;100563.34;2071940;28;47555;-58
2022/02/21 01:37:22;;;;;;;;;0.33;0.33;;;;;11.27;54.89;100566.94;2062149;28;47639;-54
2022/02/21 01:38:23;;;;;;;;;4.00;2.00;;;;;11.26;55.04;100570.50;2062702;28;47657;-55
2022/02/21 01:39:24;;;;;;;;;0.00;0.00;;;;;11.26;55.14;100562.53;2079604;28;47309;-57
2022/02/21 01:40:24;;;;;;;;;2.00;0.67;;;;;11.24;55.41;100570.53;2079464;28;47583;-57
2022/02/21 01:41:25;;;;;;;;;0.00;0.00;;;;;11.25;55.29;100584.69;2072118;28;47821;-56
2022/02/21 01:42:25;;;;;;;;;0.00;0.00;;;;;11.24;55.08;100597.09;2071702;28;47672;-57
2022/02/21 01:43:27;;;;;;;;;0.50;0.50;;;;;11.26;55.35;100607.69;2072028;28;46674;-56
2022/02/21 01:44:39;;;;;;;;;2.00;2.00;;;;;11.27;55.51;100633.34;2071849;28;47456;-57
2022/02/21 01:45:40;;;;;;;;;1.75;0.25;;;;;11.27;55.87;100660.78;2072109;28;48017;-56
2022/02/21 01:46:41;;;;;;;;;1.00;0.00;;;;;11.27;56.27;100673.19;2071939;28;47679;-56
2022/02/21 01:47:42;;;;;;;;;1.75;0.75;;;;;11.26;55.77;100650.19;2072032;28;47793;-57
2022/02/21 01:48:42;;;;;;;;;1.00;1.00;;;;;11.24;55.71;100631.63;2071982;28;47683;-56
2022/02/21 01:49:43;;;;;;;;;1.00;0.00;;;;;11.20;55.29;100576.84;2062548;28;47463;-56
2022/02/21 01:50:44;;;;;;;;;0.00;0.00;;;;;11.15;54.39;100576.09;2062758;28;47396;-57
2022/02/21 01:51:44;;;;;;;;;0.75;0.00;;;;;11.09;54.48;100587.75;2070776;28;46161;-56
2022/02/21 01:52:47;;;;;;;;;0.00;0.00;;;;;11.06;54.42;100589.63;2070617;28;47711;-60
2022/02/21 01:53:48;;;;;;;;;0.00;0.00;;;;;11.03;53.85;100576.41;2071785;28;48157;-57
2022/02/21 01:54:50;;;;;;;;;0.33;0.33;;;;;10.99;53.68;100574.75;2071354;28;47476;-57
2022/02/21 01:55:52;;;;;;;;;0.00;0.00;;;;;10.93;53.46;100583.75;2071732;28;47263;-58
2022/02/21 01:56:53;;;;;;;;;0.00;0.00;;;;;10.90;53.67;100583.81;2071950;28;47469;-59
2022/02/21 01:57:53;;;;;;;;;0.00;0.00;;;;;10.88;53.53;100585.63;2071948;28;47672;-58
2022/02/21 01:58:54;;;;;;;;;0.67;0.67;;;;;10.87;53.80;100582.13;2071397;28;47722;-59
2022/02/21 01:59:54;;;;;;;;;0.33;0.33;;;;;10.84;53.83;100584.84;2071212;28;47558;-58
2022/02/21 02:00:55;;;;;;;;;0.00;0.00;;;;;10.84;53.70;100576.03;2072059;28;47631;-57
2022/02/21 02:01:55;;;;;;;;;0.00;0.00;;;;;10.83;54.12;100592.84;2071802;28;47344;-59
2022/02/21 02:02:56;;;;;;;;;1.00;0.00;;;;;10.81;54.10;100582.28;2071793;28;47120;-59
2022/02/21 02:03:59;;;;;;;;;0.00;0.00;;;;;10.80;53.72;100577.88;2072140;28;47498;-55
2022/02/21 02:05:00;;;;;;;;;0.00;0.00;;;;;10.79;54.47;100575.25;2071806;28;47961;-57
2022/02/21 02:06:01;;;;;;;;;0.00;0.00;;;;;10.79;54.37;100573.47;2071734;28;47761;-55
2022/02/21 02:07:04;;;;;;;;;2.00;1.00;;;;;10.78;54.48;100576.16;2071620;28;47230;-56
2022/02/21 02:08:05;;;;;;;;;0.75;0.75;;;;;10.77;54.66;100580.59;2070863;28;47696;-57
2022/02/21 02:09:06;;;;;;;;;0.67;0.67;;;;;10.77;54.61;100572.63;2072014;28;47271;-58
2022/02/21 02:10:07;;;;;;;;;1.00;0.00;;;;;10.78;54.77;100578.81;2071703;28;47883;-59
2022/02/21 02:11:07;;;;;;;;;0.75;0.75;;;;;10.77;54.76;100572.63;2061911;28;48114;-56
2022/02/21 02:12:09;;;;;;;;;1.00;1.00;;;;;10.77;54.83;100566.44;2062670;28;47596;-58
2022/02/21 02:13:09;;;;;;;;;0.00;0.00;;;;;10.76;55.10;100562.94;2054275;28;48504;-57
2022/02/21 02:14:26;;;;;;;;;1.00;0.00;;;;;10.78;55.13;100571.72;2054572;28;48115;-54
2022/02/21 02:15:27;;;;;;;;;2.00;0.50;;;;;10.79;55.04;100567.28;2071748;28;48036;-58
2022/02/21 02:16:28;;;;;;;;;1.33;1.33;;;;;10.79;54.97;100564.63;2071719;28;46395;-61
2022/02/21 02:17:28;;;;;;;;;3.00;0.33;;;;;10.80;54.79;100564.63;2071793;28;46681;-58
2022/02/21 02:18:28;;;;;;;;;2.00;2.00;;;;;10.79;54.99;100559.31;2071703;28;47922;-55
2022/02/21 02:19:30;;;;;;;;;0.00;0.00;;;;;10.79;54.96;100561.97;2070411;28;47259;-57
2022/02/21 02:20:30;;;;;;;;;3.50;1.00;;;;;10.79;54.96;100554.00;2063513;28;46939;-57
2022/02/21 02:21:37;;;;;;;;;2.33;2.33;;;;;10.80;54.83;100554.00;2070862;28;47928;-54
2022/02/21 02:22:38;;;;;;;;;4.25;2.75;;;;;10.81;55.02;100552.22;2071593;28;46699;-57
2022/02/21 02:23:39;;;;;;;;;2.00;2.00;;;;;10.82;55.15;100556.59;2071052;28;46520;-57
2022/02/21 02:24:42;;;;;;;;;1.75;1.75;;;;;10.83;54.97;100547.72;2070771;28;47406;-56
2022/02/21 02:25:42;;;;;;;;;3.25;1.50;;;;;10.83;55.17;100551.25;2070739;28;47738;-58
2022/02/21 02:26:43;;;;;;;;;2.67;2.67;;;;;10.84;55.01;100568.94;2071812;28;47778;-56
2022/02/21 02:27:43;;;;;;;;;2.67;1.33;;;;;10.84;54.91;100555.66;2074362;28;47545;-55
2022/02/21 02:28:50;;;;;;;;;1.33;1.00;;;;;10.85;55.14;100573.31;2071477;28;48129;-58
2022/02/21 02:29:54;;;;;;;;;3.50;2.50;;;;;10.86;55.07;100556.47;2071745;28;48119;-56
2022/02/21 02:30:54;;;;;;;;;3.50;2.50;;;;;10.86;55.01;100561.78;2071667;28;47470;-58
2022/02/21 02:31:55;;;;;;;;;3.00;3.00;;;;;10.88;54.91;100556.44;2071465;28;48434;-54
2022/02/21 02:32:55;;;;;;;;;1.67;1.67;;;;;10.87;54.97;100558.22;2071229;28;47432;-57
2022/02/21 02:33:56;;;;;;;;;2.00;0.00;;;;;10.88;54.89;100565.28;2071215;28;48033;-56
2022/02/21 02:34:56;;;;;;;;;3.33;2.33;;;;;10.88;54.96;100562.63;2071533;28;47303;-58
2022/02/21 02:35:57;;;;;;;;;1.67;1.33;;;;;10.89;54.86;100561.69;2071549;28;47689;-55
2022/02/21 02:36:57;;;;;;;;;2.00;2.00;;;;;10.89;54.83;100553.75;2071538;28;47811;-56
2022/02/21 02:37:59;;;;;;;;;3.67;2.33;;;;;10.92;54.85;100552.78;2071673;28;47855;-58
2022/02/21 02:39:00;;;;;;;;;3.50;3.50;;;;;10.90;54.98;100550.16;2071690;28;47686;-57
2022/02/21 02:40:00;;;;;;;;;3.00;2.00;;;;;10.93;54.74;100553.69;2071712;28;47767;-56
2022/02/21 02:41:04;;;;;;;;;2.00;2.00;;;;;10.93;55.06;100553.69;2070959;28;47614;-57
2022/02/21 02:42:06;;;;;;;;;4.75;4.75;;;;;10.94;54.84;100550.13;2070909;28;47517;-57
2022/02/21 02:43:06;;;;;;;;;4.00;2.75;;;;;10.96;54.91;100561.56;2071246;28;47871;-57
2022/02/21 02:44:07;;;;;;;;;5.00;4.00;;;;;10.97;54.98;100558.88;2071691;28;46742;-55
2022/02/21 02:45:08;;;;;;;;;2.33;2.00;;;;;10.99;55.18;100558.81;2071091;28;47716;-56
2022/02/21 02:46:08;;;;;;;;;2.33;2.33;;;;;10.99;54.79;100562.34;2070884;28;47799;-57
2022/02/21 02:47:10;;;;;;;;;3.00;3.00;;;;;10.99;54.91;100554.38;2071726;28;47355;-57
2022/02/21 02:48:11;;;;;;;;;2.00;2.00;;;;;11.00;54.55;100555.25;2071452;28;47823;-55
2022/02/21 02:49:12;;;;;;;;;1.50;1.50;;;;;11.00;54.64;100556.13;2071703;28;48041;-58
2022/02/21 02:50:13;;;;;;;;;2.33;2.00;;;;;11.00;54.87;100555.25;2071357;28;47590;-58
2022/02/21 02:51:14;;;;;;;;;3.67;3.00;;;;;11.00;55.05;100560.56;2071376;28;47386;-58
2022/02/21 02:52:14;;;;;;;;;2.00;2.00;;;;;10.99;54.60;100554.38;2071764;28;45589;-56
2022/02/21 02:53:15;;;;;;;;;2.67;2.33;;;;;10.99;54.62;100557.03;2071456;28;47776;-57
2022/02/21 02:54:15;;;;;;;;;3.00;3.00;;;;;10.99;54.53;100559.69;2071282;28;47654;-56
2022/02/21 02:55:16;;;;;;;;;6.00;5.00;;;;;10.99;54.61;100569.44;2071414;28;48079;-57
2022/02/21 02:56:16;;;;;;;;;6.00;3.67;;;;;10.99;54.65;100558.81;2071175;28;47135;-56
2022/02/21 02:57:17;;;;;;;;;3.25;2.25;;;;;10.98;54.81;100562.38;2071510;28;48141;-57
2022/02/21 02:58:17;;;;;;;;;2.00;2.00;;;;;10.97;54.56;100555.34;2061860;28;47583;-58
2022/02/21 02:59:18;;;;;;;;;5.00;2.00;;;;;10.96;54.46;100558.91;2062314;28;47725;-59
2022/02/21 03:00:18;;;;;;;;;5.33;4.33;;;;;10.95;54.54;100558.03;2071178;28;46990;-57
2022/02/21 03:01:19;;;;;;;;;4.67;3.00;;;;;10.94;54.32;100558.94;2071543;28;47296;-56
2022/02/21 03:02:19;;;;;;;;;4.33;3.33;;;;;10.92;54.56;100560.75;2071216;28;47342;-57
2022/02/21 03:03:20;;;;;;;;;4.00;2.00;;;;;10.93;54.67;100559.00;2062183;28;47676;-57
2022/02/21 03:04:20;;;;;;;;;6.00;3.00;;;;;10.91;54.56;100561.66;2062553;28;46258;-57
2022/02/21 03:05:21;;;;;;;;;6.00;5.00;;;;;10.92;54.40;100558.09;2071532;28;47929;-57
2022/02/21 03:06:22;;;;;;;;;5.33;4.00;;;;;10.91;54.24;100557.22;2070162;28;47674;-58
2022/02/21 03:07:22;;;;;;;;;4.00;4.00;;;;;10.90;54.11;100557.25;2070311;28;48072;-58
2022/02/21 03:08:23;;;;;;;;;3.00;3.00;;;;;10.89;54.22;100551.09;2071338;28;48004;-58
2022/02/21 03:09:23;;;;;;;;;6.67;4.67;;;;;10.87;53.99;100550.25;2071498;28;47796;-57
2022/02/21 03:10:23;;;;;;;;;4.00;2.00;;;;;10.86;53.81;100550.31;2061671;28;47733;-57
2022/02/21 03:11:24;;;;;;;;;3.00;3.00;;;;;10.86;53.94;100552.94;2062065;28;47376;-57
2022/02/21 03:12:25;;;;;;;;;4.00;3.33;;;;;10.85;54.24;100560.06;2071453;28;47443;-57
2022/02/21 03:13:27;;;;;;;;;4.25;2.25;;;;;10.85;53.95;100557.41;2070803;28;47912;-58
2022/02/21 03:14:28;;;;;;;;;5.25;3.50;;;;;10.84;54.04;100547.69;2070537;28;47521;-58
2022/02/21 03:15:28;;;;;;;;;4.33;3.00;;;;;10.84;54.13;100552.13;2070835;28;47658;-58
2022/02/21 03:16:29;;;;;;;;;5.00;2.00;;;;;10.84;54.13;100550.34;2061738;28;48375;-57
2022/02/21 03:17:29;;;;;;;;;5.00;5.00;;;;;10.84;53.87;100542.38;2061887;28;47551;-57
2022/02/21 03:18:29;;;;;;;;;4.00;3.00;;;;;10.83;53.73;100543.28;2071355;28;47257;-55
2022/02/21 03:19:30;;;;;;;;;3.00;2.00;;;;;10.81;53.58;100537.16;2069265;28;47490;-57
2022/02/21 03:20:30;;;;;;;;;7.00;4.33;;;;;10.79;53.86;100524.81;2062419;28;47260;-56
2022/02/21 03:21:31;;;;;;;;;2.00;2.00;;;;;10.79;53.97;100544.25;2070513;28;47587;-55
2022/02/21 03:22:31;;;;;;;;;4.00;4.00;;;;;10.79;53.80;100546.03;2071208;28;47918;-56
2022/02/21 03:23:32;;;;;;;;;5.67;3.67;;;;;10.77;53.80;100540.78;2071118;28;47244;-57
2022/02/21 03:24:32;;;;;;;;;2.33;2.33;;;;;10.78;53.52;100544.31;2070685;28;48120;-57
2022/02/21 03:25:32;;;;;;;;;4.67;4.67;;;;;10.77;53.40;100550.53;2070235;28;47511;-57
2022/02/21 03:26:33;;;;;;;;;5.67;3.00;;;;;10.77;53.14;100555.84;2071332;28;47728;-55
2022/02/21 03:27:39;;;;;;;;;5.33;4.67;;;;;10.75;53.06;100563.84;2074748;28;47295;-57
2022/02/21 03:28:39;;;;;;;;;6.25;4.25;;;;;10.75;53.25;100552.34;2071379;28;47916;-56
2022/02/21 03:29:42;;;;;;;;;1.67;1.67;;;;;10.74;53.37;100540.00;2071195;28;47452;-55
2022/02/21 03:30:42;;;;;;;;;3.00;2.75;;;;;10.75;53.26;100545.25;2071171;28;48330;-56
2022/02/21 03:31:43;;;;;;;;;4.00;3.67;;;;;10.76;53.21;100540.81;2071242;28;47680;-57
2022/02/21 03:32:43;;;;;;;;;6.33;4.00;;;;;10.76;52.67;100547.00;2071208;28;47481;-56
2022/02/21 03:33:44;;;;;;;;;3.33;3.33;;;;;10.75;53.00;100558.53;2071109;28;47506;-57
2022/02/21 03:34:44;;;;;;;;;3.67;2.00;;;;;10.77;52.75;100551.41;2071283;28;47659;-57
2022/02/21 03:35:45;;;;;;;;;4.00;3.00;;;;;10.76;52.84;100560.28;2071065;28;47527;-57
2022/02/21 03:36:45;;;;;;;;;5.00;2.00;;;;;10.77;52.73;100553.19;2071112;28;47812;-56
2022/02/21 03:37:46;;;;;;;;;6.00;3.00;;;;;10.77;52.53;100550.53;2070933;28;47910;-57
2022/02/21 03:38:46;;;;;;;;;4.00;2.00;;;;;10.78;52.54;100544.31;2071110;28;48012;-58
2022/02/21 03:39:47;;;;;;;;;2.67;2.00;;;;;10.76;52.21;100546.13;2071332;28;47919;-56
2022/02/21 03:40:48;;;;;;;;;2.33;1.00;;;;;10.75;52.81;100550.56;2070644;28;47200;-58
2022/02/21 03:41:49;;;;;;;;;2.25;1.75;;;;;10.75;52.88;100541.72;2071073;28;47583;-57
2022/02/21 03:42:51;;;;;;;;;4.33;3.00;;;;;10.76;52.68;100552.31;2071000;28;47602;-57
2022/02/21 03:43:52;;;;;;;;;3.75;3.50;;;;;10.75;52.40;100553.22;2070913;28;47674;-56
2022/02/21 03:44:52;;;;;;;;;4.33;2.67;;;;;10.75;52.90;100561.19;2070584;28;47375;-57
2022/02/21 03:45:53;;;;;;;;;1.67;1.00;;;;;10.75;52.64;100565.63;2061750;28;48148;-56
2022/02/21 03:46:53;;;;;;;;;3.00;2.00;;;;;10.74;52.69;100566.53;2061971;28;47973;-54
2022/02/21 03:47:54;;;;;;;;;5.67;4.00;;;;;10.73;53.00;100563.00;2071129;28;47708;-57
2022/02/21 03:48:54;;;;;;;;;4.67;3.67;;;;;10.72;52.42;100566.56;2070948;28;48083;-58
2022/02/21 03:49:55;;;;;;;;;3.00;3.00;;;;;10.71;52.50;100562.19;2071327;28;48413;-58
2022/02/21 03:50:55;;;;;;;;;8.00;4.67;;;;;10.70;52.54;100552.47;2071190;28;47379;-58
2022/02/21 03:51:55;;;;;;;;;2.00;2.00;;;;;10.69;52.66;100552.53;2070905;28;47550;-54
2022/02/21 03:52:56;;;;;;;;;5.25;2.75;;;;;10.67;52.52;100552.56;2071322;28;47513;-57
2022/02/21 03:53:56;;;;;;;;;3.33;3.00;;;;;10.66;52.72;100561.41;2071163;28;47528;-57
2022/02/21 03:54:56;;;;;;;;;3.00;3.00;;;;;10.65;52.83;100546.38;2063287;28;47440;-56
2022/02/21 03:55:57;;;;;;;;;4.00;3.67;;;;;10.64;52.90;100554.41;2063218;28;47433;-57
2022/02/21 03:56:57;;;;;;;;;4.33;3.00;;;;;10.62;53.20;100554.44;2071218;28;47447;-56
2022/02/21 03:57:58;;;;;;;;;5.67;3.33;;;;;10.62;53.25;100557.09;2071358;28;47435;-57
2022/02/21 03:58:58;;;;;;;;;3.33;2.67;;;;;10.62;53.48;100570.34;2071013;28;47759;-56
2022/02/21 03:59:58;;;;;;;;;3.00;2.00;;;;;10.63;53.13;100568.56;2053738;28;47502;-55
2022/02/21 04:00:59;;;;;;;;;5.67;4.67;;;;;10.62;53.55;100575.66;2053749;28;47375;-56
2022/02/21 04:01:59;;;;;;;;;5.33;3.00;;;;;10.62;53.32;100575.66;2070980;28;47325;-56
2022/02/21 04:03:00;;;;;;;;;3.00;2.00;;;;;10.63;53.50;100581.84;2070800;28;47794;-57
2022/02/21 04:04:00;;;;;;;;;4.00;3.00;;;;;10.63;53.32;100616.34;2070911;28;47809;-57
2022/02/21 04:05:01;;;;;;;;;2.33;1.33;;;;;10.61;53.66;100588.06;2061495;28;47483;-56
2022/02/21 04:06:01;;;;;;;;;3.00;1.67;;;;;10.61;53.46;100560.66;2061651;28;46578;-56
2022/02/21 04:07:02;;;;;;;;;5.33;2.00;;;;;10.60;53.76;100566.88;2070951;28;47624;-57
2022/02/21 04:08:02;;;;;;;;;4.00;2.33;;;;;10.60;53.92;100582.78;2070075;28;47462;-57
2022/02/21 04:09:03;;;;;;;;;4.00;2.67;;;;;10.58;53.85;100579.31;2062304;28;47452;-55
2022/02/21 04:10:04;;;;;;;;;3.00;2.25;;;;;10.56;53.70;100581.13;2066334;28;47462;-57
2022/02/21 04:11:04;;;;;;;;;4.67;2.33;;;;;10.57;54.05;100596.16;2070632;28;47743;-57
2022/02/21 04:12:07;;;;;;;;;4.33;3.33;;;;;10.56;54.38;100589.09;2071098;28;48022;-56
2022/02/21 04:13:07;;;;;;;;;2.50;1.50;;;;;10.54;53.87;100594.44;2070761;28;47910;-56
2022/02/21 04:14:07;;;;;;;;;4.33;3.33;;;;;10.52;54.08;100582.09;2070951;28;47594;-57
2022/02/21 04:15:08;;;;;;;;;4.00;3.00;;;;;10.51;54.15;100586.53;2071010;28;47799;-57
2022/02/21 04:16:09;;;;;;;;;4.00;4.00;;;;;10.51;54.41;100575.03;2070888;28;47468;-56
2022/02/21 04:17:09;;;;;;;;;4.00;2.00;;;;;10.50;54.68;100565.34;2069940;28;47999;-57
2022/02/21 04:18:10;;;;;;;;;2.00;2.00;;;;;10.48;54.43;100576.00;2069755;28;47234;-56
2022/02/21 04:19:10;;;;;;;;;2.00;2.00;;;;;10.49;54.75;100574.22;2070834;28;47999;-57
2022/02/21 04:20:13;;;;;;;;;2.33;2.33;;;;;10.50;54.67;100581.25;2065258;28;47988;-55
2022/02/21 04:21:13;;;;;;;;;2.75;2.00;;;;;10.51;54.42;100577.69;2070935;28;47670;-53
2022/02/21 04:22:14;;;;;;;;;3.00;2.33;;;;;10.52;54.45;100579.44;2071117;28;47465;-58
2022/02/21 04:23:14;;;;;;;;;3.00;2.00;;;;;10.52;54.47;100585.63;2071193;28;47299;-52
2022/02/21 04:24:15;;;;;;;;;2.67;2.33;;;;;10.51;54.37;100591.84;2071093;28;47355;-56
2022/02/21 04:25:15;;;;;;;;;3.33;3.33;;;;;10.50;54.41;100590.09;2070754;28;48044;-57
2022/02/21 04:26:16;;;;;;;;;4.33;3.33;;;;;10.52;54.40;100604.19;2071583;28;47530;-57
2022/02/21 04:27:16;;;;;;;;;2.00;2.00;;;;;10.51;54.37;100583.88;2077621;28;47530;-57
2022/02/21 04:28:18;;;;;;;;;2.67;2.67;;;;;10.50;54.59;100600.69;2079033;28;48099;-55
2022/02/21 04:29:18;;;;;;;;;3.50;2.50;;;;;10.49;54.79;100598.09;2072193;28;47233;-55
2022/02/21 04:30:21;;;;;;;;;3.00;3.00;;;;;10.48;54.96;100591.91;2071930;28;47504;-55
2022/02/21 04:31:21;;;;;;;;;4.50;2.00;;;;;10.46;54.97;100585.78;2071583;28;48058;-55
2022/02/21 04:32:22;;;;;;;;;4.67;4.67;;;;;10.45;55.21;100596.44;2072197;28;47661;-57
2022/02/21 04:33:22;;;;;;;;;3.33;2.67;;;;;10.44;55.26;100576.13;2072737;28;45558;-56
2022/02/21 04:34:23;;;;;;;;;3.33;2.67;;;;;10.42;54.92;100581.47;2072413;28;47688;-55
2022/02/21 04:35:25;;;;;;;;;2.67;2.67;;;;;10.41;54.76;100576.16;2072496;28;47793;-56
2022/02/21 04:36:26;;;;;;;;;2.00;1.50;;;;;10.40;55.04;100579.72;2071990;28;47387;-54
2022/02/21 04:37:26;;;;;;;;;2.00;2.00;;;;;10.38;55.20;100578.91;2072129;28;47214;-58
2022/02/21 04:38:27;;;;;;;;;2.00;1.00;;;;;10.38;54.79;100573.59;2072244;28;47975;-58
2022/02/21 04:39:28;;;;;;;;;4.50;2.50;;;;;10.37;55.09;100571.84;2072110;28;48116;-58
2022/02/21 04:40:29;;;;;;;;;4.33;2.33;;;;;10.36;54.98;100580.72;2072151;28;47550;-56
2022/02/21 04:41:29;;;;;;;;;3.75;3.50;;;;;10.35;54.98;100571.88;2072459;28;47617;-57
2022/02/21 04:42:30;;;;;;;;;2.00;2.00;;;;;10.35;54.74;100573.66;2072182;28;47936;-57